Wetterstation Vordersexau
Wetterdaten: Woche 11.01.16 - 17.01.16 (KW2)
Datum Zeit Temp. A. Feuchte A. Luftdruck Regen Wind Richtung Taupunkt Windchill Windben
11.01.2016 00:00 7,8 C 80 % 995,6 hPa 0,0 l/m 2,6 km/h S-SW 4,6 C 7,8 C 1,4 km/h
11.01.2016 01:00 7,6 C 79 % 994,9 hPa 0,0 l/m 2,6 km/h S 4,2 C 7,6 C 1,4 km/h
11.01.2016 02:00 7,7 C 78 % 994,2 hPa 0,0 l/m 0,0 km/h S-SO 4,1 C 7,7 C 0,0 km/h
11.01.2016 03:00 6,2 C 86 % 993,4 hPa 0,8 l/m 9,1 km/h SO 4,0 C 4,0 C 5,0 km/h
11.01.2016 04:00 5,3 C 88 % 992,0 hPa 1,2 l/m 0,0 km/h SO 3,5 C 5,3 C 0,0 km/h
11.01.2016 05:00 4,7 C 88 % 991,3 hPa 1,7 l/m 0,0 km/h SO 2,9 C 4,7 C 0,0 km/h
11.01.2016 06:00 4,6 C 88 % 990,8 hPa 1,2 l/m 0,0 km/h SO 2,8 C 4,6 C 0,0 km/h
11.01.2016 07:00 4,4 C 89 % 990,9 hPa 1,7 l/m 0,0 km/h SO 2,7 C 4,4 C 0,0 km/h
11.01.2016 08:00 4,4 C 89 % 990,4 hPa 1,7 l/m 0,0 km/h O-NO 2,7 C 4,4 C 0,0 km/h
11.01.2016 09:00 4,8 C 88 % 990,8 hPa 2,5 l/m 0,0 km/h O-NO 3,0 C 4,8 C 0,0 km/h
11.01.2016 10:00 5,3 C 88 % 991,1 hPa 0,4 l/m 0,0 km/h SW 3,5 C 5,3 C 0,0 km/h
11.01.2016 11:00 6,1 C 88 % 991,0 hPa 0,0 l/m 0,0 km/h S-SW 4,3 C 6,1 C 0,0 km/h
11.01.2016 12:00 9,2 C 86 % 990,1 hPa 0,0 l/m 12,3 km/h SW 7,0 C 5,4 C 6,8 km/h
11.01.2016 13:00 7,1 C 88 % 990,4 hPa 0,4 l/m 24,6 km/h S-SW 5,2 C -2,0 C 13,7 km/h
11.01.2016 14:00 9,6 C 81 % 989,3 hPa 0,0 l/m 14,9 km/h W 6,5 C 4,7 C 8,3 km/h
11.01.2016 15:00 9,7 C 78 % 990,6 hPa 0,8 l/m 20,1 km/h SW 6,1 C 2,9 C 11,2 km/h
11.01.2016 16:00 7,7 C 79 % 991,0 hPa 0,0 l/m 10,4 km/h W-SW 4,3 C 4,8 C 5,8 km/h
11.01.2016 17:00 7,8 C 79 % 990,7 hPa 0,0 l/m 21,4 km/h W-SW 4,4 C -0,0 C 11,9 km/h
11.01.2016 18:00 8,4 C 73 % 990,6 hPa 0,0 l/m 22,0 km/h S 3,8 C 0,6 C 12,2 km/h
11.01.2016 19:00 6,3 C 84 % 992,5 hPa 0,4 l/m 18,1 km/h S-SW 3,8 C -0,7 C 10,1 km/h
11.01.2016 20:00 6,5 C 83 % 993,2 hPa 0,0 l/m 32,4 km/h S-SW 3,8 C -4,8 C 18,0 km/h
11.01.2016 21:00 6,6 C 79 % 993,5 hPa 0,0 l/m 16,2 km/h W-SW 3,2 C 0,5 C 9,0 km/h
11.01.2016 22:00 6,9 C 77 % 993,9 hPa 0,0 l/m 18,8 km/h W 3,2 C -0,3 C 10,4 km/h
11.01.2016 23:00 6,4 C 80 % 993,8 hPa 0,0 l/m 20,1 km/h W-SW 3,2 C -1,4 C 11,2 km/h
12.01.2016 00:00 6,3 C 81 % 993,9 hPa 0,0 l/m 42,1 km/h W-SW 3,3 C -6,9 C 23,4 km/h
12.01.2016 01:00 5,9 C 83 % 994,2 hPa 0,0 l/m 25,9 km/h W-NW 3,2 C -4,0 C 14,4 km/h
12.01.2016 02:00 5,8 C 84 % 994,6 hPa 0,4 l/m 23,3 km/h S-SW 3,3 C -3,3 C 13,0 km/h
12.01.2016 03:00 6,1 C 81 % 995,1 hPa 0,0 l/m 21,4 km/h SW 3,1 C -2,3 C 11,9 km/h
12.01.2016 04:00 5,9 C 83 % 995,6 hPa 0,0 l/m 40,8 km/h SW 3,2 C -7,3 C 22,7 km/h
12.01.2016 05:00 4,8 C 88 % 995,7 hPa 0,8 l/m 21,4 km/h S-SW 3,0 C -4,0 C 11,9 km/h
12.01.2016 06:00 5,4 C 89 % 995,9 hPa 0,0 l/m 20,7 km/h NW 3,7 C -2,9 C 11,5 km/h
12.01.2016 07:00 4,4 C 88 % 997,7 hPa 1,7 l/m 2,6 km/h S-SW 2,6 C 4,4 C 1,4 km/h
12.01.2016 08:00 3,9 C 88 % 999,1 hPa 0,4 l/m 0,0 km/h W-SW 2,1 C 3,9 C 0,0 km/h
12.01.2016 09:00 5,1 C 88 % 1000,0 hPa 0,0 l/m 24,0 km/h W-SW 3,3 C -4,5 C 13,3 km/h
12.01.2016 10:00 5,5 C 89 % 1001,1 hPa 0,0 l/m 20,1 km/h W-SW 3,8 C -2,6 C 11,2 km/h
12.01.2016 11:00 7,1 C 85 % 1001,6 hPa 0,0 l/m 18,1 km/h SW 4,8 C 0,3 C 10,1 km/h
12.01.2016 12:00 8,9 C 79 % 1001,5 hPa 0,0 l/m 22,7 km/h W-SW 5,5 C 1,0 C 12,6 km/h
12.01.2016 13:00 7,3 C 82 % 1001,8 hPa 0,0 l/m 20,1 km/h W 4,4 C -0,2 C 11,2 km/h
12.01.2016 14:00 6,9 C 83 % 1001,6 hPa 0,0 l/m 16,8 km/h W 4,2 C 0,6 C 9,4 km/h
12.01.2016 15:00 10,6 C 73 % 1001,7 hPa 0,0 l/m 22,0 km/h W-SW 6,0 C 3,5 C 12,2 km/h
12.01.2016 16:00 6,5 C 80 % 1002,3 hPa 0,0 l/m 21,4 km/h W 3,3 C -1,7 C 11,9 km/h
12.01.2016 17:00 5,6 C 82 % 1003,0 hPa 0,0 l/m 21,4 km/h W-NW 2,8 C -2,9 C 11,9 km/h
12.01.2016 18:00 4,4 C 88 % 1004,2 hPa 0,8 l/m 5,8 km/h W-SW 2,6 C 4,4 C 3,2 km/h
12.01.2016 19:00 4,8 C 88 % 1004,1 hPa 0,4 l/m 36,9 km/h W-SW 3,0 C -8,2 C 20,5 km/h
12.01.2016 20:00 3,7 C 89 % 1005,0 hPa 1,2 l/m 5,2 km/h S 2,1 C 3,7 C 2,9 km/h
12.01.2016 21:00 4,1 C 89 % 1005,1 hPa 0,0 l/m 8,4 km/h W-SW 2,5 C 2,3 C 4,7 km/h
12.01.2016 22:00 4,3 C 89 % 1006,7 hPa 0,4 l/m 29,2 km/h W-SW 2,7 C -7,1 C 16,2 km/h
12.01.2016 23:00 4,3 C 88 % 1007,2 hPa 0,0 l/m 6,5 km/h W 2,5 C 4,2 C 3,6 km/h
13.01.2016 00:00 4,3 C 86 % 1007,8 hPa 0,0 l/m 21,4 km/h SW 2,2 C -4,6 C 11,9 km/h
13.01.2016 01:00 4,5 C 84 % 1007,7 hPa 0,0 l/m 20,1 km/h W 2,0 C -3,9 C 11,2 km/h
13.01.2016 02:00 3,9 C 87 % 1008,5 hPa 0,0 l/m 35,6 km/h W-SW 1,9 C -9,3 C 19,8 km/h
13.01.2016 03:00 3,9 C 87 % 1009,0 hPa 0,0 l/m 33,0 km/h W-SW 1,9 C -8,7 C 18,4 km/h
13.01.2016 04:00 4,3 C 85 % 1009,5 hPa 0,0 l/m 21,4 km/h W-SW 2,0 C -4,6 C 11,9 km/h
13.01.2016 05:00 4,4 C 85 % 1010,2 hPa 0,0 l/m 29,2 km/h W 2,1 C -7,0 C 16,2 km/h
13.01.2016 06:00 4,4 C 84 % 1010,5 hPa 0,0 l/m 20,7 km/h W-SW 1,9 C -4,2 C 11,5 km/h
13.01.2016 07:00 4,1 C 86 % 1011,5 hPa 0,0 l/m 17,5 km/h W-SW 2,0 C -3,2 C 9,7 km/h
13.01.2016 08:00 4,1 C 85 % 1013,1 hPa 0,0 l/m 32,4 km/h W-SW 1,8 C -8,3 C 18,0 km/h
13.01.2016 09:00 3,9 C 85 % 1014,2 hPa 0,0 l/m 16,2 km/h W-SW 1,6 C -2,9 C 9,0 km/h
13.01.2016 10:00 3,9 C 85 % 1015,3 hPa 0,0 l/m 14,3 km/h SW 1,6 C -1,9 C 7,9 km/h
13.01.2016 11:00 4,1 C 85 % 1016,3 hPa 0,0 l/m 5,8 km/h SW 1,8 C 4,1 C 3,2 km/h
13.01.2016 12:00 4,2 C 84 % 1016,9 hPa 0,0 l/m 24,0 km/h W-SW 1,7 C -5,7 C 13,3 km/h
13.01.2016 13:00 4,4 C 83 % 1017,1 hPa 0,0 l/m 18,8 km/h W 1,8 C -3,4 C 10,4 km/h
13.01.2016 14:00 4,6 C 81 % 1017,5 hPa 0,0 l/m 16,2 km/h W 1,6 C -2,0 C 9,0 km/h
13.01.2016 15:00 4,4 C 84 % 1017,9 hPa 0,0 l/m 10,4 km/h W-NW 1,9 C 1,1 C 5,8 km/h
13.01.2016 16:00 4,3 C 82 % 1018,0 hPa 0,0 l/m 13,6 km/h W 1,5 C -1,0 C 7,6 km/h
13.01.2016 17:00 4,2 C 81 % 1018,6 hPa 0,0 l/m 14,9 km/h W 1,2 C -1,8 C 8,3 km/h
13.01.2016 18:00 3,9 C 81 % 1018,3 hPa 0,0 l/m 7,1 km/h W-SW 0,9 C 3,3 C 4,0 km/h
13.01.2016 19:00 4,1 C 78 % 1017,7 hPa 0,0 l/m 5,8 km/h W-SW 0,6 C 4,1 C 3,2 km/h
13.01.2016 20:00 4,0 C 76 % 1018,0 hPa 0,0 l/m 18,1 km/h W 0,2 C -3,6 C 10,1 km/h
13.01.2016 21:00 3,3 C 78 % 1017,6 hPa 0,0 l/m 6,5 km/h W-SW -0,2 C 3,2 C 3,6 km/h
13.01.2016 22:00 2,9 C 78 % 1017,3 hPa 0,0 l/m 0,0 km/h N -0,5 C 2,9 C 0,0 km/h
13.01.2016 23:00 1,8 C 82 % 1017,1 hPa 0,0 l/m 0,0 km/h N-NO -0,9 C 1,8 C 0,0 km/h
14.01.2016 00:00 1,3 C 84 % 1016,4 hPa 0,0 l/m 0,0 km/h N-NO -1,1 C 1,3 C 0,0 km/h
14.01.2016 01:00 -0,1 C 86 % 1016,0 hPa 0,0 l/m 0,0 km/h N-NO -2,2 C -0,1 C 0,0 km/h
14.01.2016 02:00 -1,0 C 88 % 1015,3 hPa 0,0 l/m 0,0 km/h O-SO -2,7 C -1,0 C 0,0 km/h
14.01.2016 03:00 -1,0 C 88 % 1014,2 hPa 0,0 l/m 0,0 km/h SO -2,7 C -1,0 C 0,0 km/h
14.01.2016 04:00 -1,1 C 89 % 1012,8 hPa 0,0 l/m 0,0 km/h O-NO -2,7 C -1,1 C 0,0 km/h
14.01.2016 05:00 -1,1 C 89 % 1012,2 hPa 0,0 l/m 0,0 km/h SO -2,7 C -1,1 C 0,0 km/h
14.01.2016 06:00 -1,0 C 89 % 1011,2 hPa 0,0 l/m 14,9 km/h SO -2,6 C -8,1 C 8,3 km/h
14.01.2016 07:00 -0,8 C 89 % 1010,3 hPa 0,0 l/m 0,6 km/h SO -2,4 C -0,8 C 0,4 km/h
14.01.2016 08:00 -1,1 C 89 % 1009,8 hPa 0,0 l/m 0,0 km/h O -2,7 C -1,1 C 0,0 km/h
14.01.2016 09:00 0,8 C 88 % 1009,3 hPa 0,0 l/m 0,0 km/h N-NO -1,0 C 0,8 C 0,0 km/h
14.01.2016 10:00 7,6 C 76 % 1008,9 hPa 0,0 l/m 0,0 km/h W-NW 3,6 C 7,6 C 0,0 km/h
14.01.2016 11:00 9,9 C 65 % 1008,0 hPa 0,0 l/m 0,0 km/h S-SO 3,6 C 9,9 C 0,0 km/h
14.01.2016 12:00 11,1 C 59 % 1007,0 hPa 0,0 l/m 0,0 km/h S 3,4 C 11,1 C 0,0 km/h
14.01.2016 13:00 6,7 C 64 % 1005,5 hPa 0,0 l/m 0,0 km/h W-SW 0,4 C 6,7 C 0,0 km/h
14.01.2016 14:00 5,9 C 57 % 1005,1 hPa 0,0 l/m 12,3 km/h W-SW -2,0 C 1,6 C 6,8 km/h
14.01.2016 15:00 5,0 C 67 % 1005,9 hPa 0,0 l/m 12,3 km/h W-SW -0,6 C 0,6 C 6,8 km/h
14.01.2016 16:00 4,2 C 76 % 1005,9 hPa 0,0 l/m 23,3 km/h W 0,4 C -5,5 C 13,0 km/h
14.01.2016 17:00 3,5 C 82 % 1006,6 hPa 0,0 l/m 21,4 km/h W-SW 0,7 C -5,7 C 11,9 km/h
14.01.2016 18:00 3,6 C 84 % 1007,0 hPa 0,0 l/m 22,0 km/h W-SW 1,2 C -5,8 C 12,2 km/h
14.01.2016 19:00 3,9 C 84 % 1007,8 hPa 0,0 l/m 18,8 km/h W-SW 1,4 C -4,1 C 10,4 km/h
14.01.2016 20:00 3,6 C 85 % 1008,1 hPa 0,0 l/m 23,3 km/h W-SW 1,3 C -6,3 C 13,0 km/h
14.01.2016 21:00 3,9 C 83 % 1008,1 hPa 0,0 l/m 10,4 km/h SW 1,3 C 0,6 C 5,8 km/h
14.01.2016 22:00 2,9 C 84 % 1008,9 hPa 0,0 l/m 21,4 km/h SW 0,5 C -6,5 C 11,9 km/h
14.01.2016 23:00 1,9 C 87 % 1009,1 hPa 0,0 l/m 3,9 km/h S-SW -0,0 C 1,9 C 2,2 km/h
15.01.2016 00:00 2,1 C 88 % 1008,7 hPa 0,0 l/m 0,0 km/h S-SW 0,3 C 2,1 C 0,0 km/h
15.01.2016 01:00 3,1 C 87 % 1008,8 hPa 0,0 l/m 5,8 km/h W 1,2 C 3,1 C 3,2 km/h
15.01.2016 02:00 2,8 C 87 % 1008,7 hPa 0,4 l/m 2,6 km/h W-NW 0,9 C 2,8 C 1,4 km/h
15.01.2016 03:00 1,5 C 88 % 1009,4 hPa 0,0 l/m 0,0 km/h W-SW -0,3 C 1,5 C 0,0 km/h
15.01.2016 04:00 1,1 C 89 % 1009,5 hPa 0,0 l/m 0,0 km/h W-SW -0,5 C 1,1 C 0,0 km/h
15.01.2016 05:00 2,3 C 83 % 1009,5 hPa 0,0 l/m 24,0 km/h W-SW -0,3 C -8,2 C 13,3 km/h
15.01.2016 06:00 2,5 C 76 % 1009,7 hPa 0,0 l/m 50,5 km/h W-SW -1,3 C -13,9 C 28,1 km/h
15.01.2016 07:00 1,3 C 85 % 1010,1 hPa 0,0 l/m 32,4 km/h W-SW -0,9 C -12,2 C 18,0 km/h
15.01.2016 08:00 1,9 C 78 % 1010,1 hPa 0,0 l/m 42,8 km/h W-SW -1,5 C -13,6 C 23,8 km/h
15.01.2016 09:00 1,9 C 75 % 1010,8 hPa 0,0 l/m 31,8 km/h SW -2,1 C -11,2 C 17,6 km/h
15.01.2016 10:00 2,1 C 74 % 1011,9 hPa 0,0 l/m 36,9 km/h W-SW -2,0 C -12,2 C 20,5 km/h
15.01.2016 11:00 2,5 C 73 % 1011,9 hPa 0,0 l/m 18,1 km/h W-SW -1,8 C -5,5 C 10,1 km/h
15.01.2016 12:00 2,9 C 71 % 1011,7 hPa 0,0 l/m 30,5 km/h SW -1,8 C -9,5 C 16,9 km/h
15.01.2016 13:00 3,2 C 70 % 1011,6 hPa 0,0 l/m 13,6 km/h W-SW -1,7 C -2,3 C 7,6 km/h
15.01.2016 14:00 3,5 C 70 % 1011,2 hPa 0,0 l/m 42,8 km/h W-SW -1,4 C -11,2 C 23,8 km/h
15.01.2016 15:00 3,1 C 71 % 1011,4 hPa 0,0 l/m 19,4 km/h W-NW -1,6 C -5,4 C 10,8 km/h
15.01.2016 16:00 3,1 C 73 % 1011,3 hPa 0,0 l/m 15,6 km/h W-SW -1,3 C -3,5 C 8,6 km/h
15.01.2016 17:00 3,0 C 74 % 1011,9 hPa 0,0 l/m 4,5 km/h W-NW -1,2 C 3,0 C 2,5 km/h
15.01.2016 18:00 2,7 C 75 % 1012,3 hPa 0,0 l/m 14,3 km/h W -1,3 C -3,3 C 7,9 km/h
15.01.2016 19:00 2,0 C 79 % 1012,8 hPa 0,0 l/m 22,0 km/h W -1,2 C -7,9 C 12,2 km/h
15.01.2016 20:00 0,8 C 85 % 1013,2 hPa 0,0 l/m 0,0 km/h W -1,4 C 0,8 C 0,0 km/h
15.01.2016 21:00 0,4 C 88 % 1013,6 hPa 0,0 l/m 0,0 km/h S-SW -1,3 C 0,4 C 0,0 km/h
15.01.2016 22:00 0,4 C 89 % 1013,9 hPa 0,0 l/m 0,0 km/h W -1,2 C 0,4 C 0,0 km/h
15.01.2016 23:00 0,5 C 89 % 1014,4 hPa 0,0 l/m 7,1 km/h W-SW -1,1 C -0,2 C 4,0 km/h
16.01.2016 00:00 0,4 C 89 % 1015,1 hPa 0,0 l/m 0,0 km/h N-NO -1,2 C 0,4 C 0,0 km/h
16.01.2016 01:00 0,4 C 89 % 1015,8 hPa 0,0 l/m 0,0 km/h W -1,2 C 0,4 C 0,0 km/h
16.01.2016 02:00 0,4 C 89 % 1016,5 hPa 0,0 l/m 0,0 km/h W -1,2 C 0,4 C 0,0 km/h
16.01.2016 03:00 0,3 C 89 % 1016,8 hPa 0,0 l/m 0,0 km/h W -1,3 C 0,3 C 0,0 km/h
16.01.2016 04:00 0,1 C 89 % 1017,6 hPa 0,0 l/m 0,0 km/h W -1,5 C 0,1 C 0,0 km/h
16.01.2016 05:00 0,2 C 89 % 1018,2 hPa 0,0 l/m 0,0 km/h W -1,4 C 0,2 C 0,0 km/h
16.01.2016 06:00 0,1 C 89 % 1018,6 hPa 0,0 l/m 0,0 km/h W -1,5 C 0,1 C 0,0 km/h
16.01.2016 07:00 0,2 C 89 % 1019,3 hPa 0,0 l/m 0,0 km/h W -1,4 C 0,2 C 0,0 km/h
16.01.2016 08:00 0,3 C 89 % 1019,9 hPa 0,0 l/m 0,0 km/h W -1,3 C 0,3 C 0,0 km/h
16.01.2016 09:00 0,4 C 88 % 1020,7 hPa 0,0 l/m 0,0 km/h W-NW -1,3 C 0,4 C 0,0 km/h
16.01.2016 10:00 0,8 C 88 % 1021,0 hPa 0,0 l/m 0,0 km/h W-NW -1,0 C 0,8 C 0,0 km/h
16.01.2016 11:00 1,9 C 88 % 1021,4 hPa 0,0 l/m 0,0 km/h SW 0,1 C 1,9 C 0,0 km/h
16.01.2016 12:00 3,9 C 89 % 1021,4 hPa 0,0 l/m 0,0 km/h S-SW 2,3 C 3,9 C 0,0 km/h
16.01.2016 13:00 3,4 C 87 % 1021,0 hPa 0,8 l/m 0,0 km/h W-SW 1,4 C 3,4 C 0,0 km/h
16.01.2016 14:00 2,4 C 85 % 1020,9 hPa 0,8 l/m 0,0 km/h W-NW 0,1 C 2,4 C 0,0 km/h
16.01.2016 15:00 1,1 C 88 % 1020,9 hPa 0,8 l/m 0,0 km/h SW -0,7 C 1,1 C 0,0 km/h
16.01.2016 16:00 0,9 C 88 % 1021,0 hPa 0,0 l/m 0,0 km/h NO -0,9 C 0,9 C 0,0 km/h
16.01.2016 17:00 -0,2 C 89 % 1021,5 hPa 0,0 l/m 0,0 km/h NO -1,8 C -0,2 C 0,0 km/h
16.01.2016 18:00 -0,7 C 89 % 1021,4 hPa 0,0 l/m 0,0 km/h NO -2,3 C -0,7 C 0,0 km/h
16.01.2016 19:00 0,1 C 89 % 1021,4 hPa 0,4 l/m 0,0 km/h N-NO -1,5 C 0,1 C 0,0 km/h
16.01.2016 20:00 0,1 C 89 % 1022,1 hPa 0,0 l/m 0,0 km/h N-NO -1,5 C 0,1 C 0,0 km/h
16.01.2016 21:00 -1,9 C 89 % 1022,4 hPa 0,0 l/m 0,0 km/h N-NO -3,5 C -1,9 C 0,0 km/h
16.01.2016 22:00 -3,7 C 89 % 1022,0 hPa 0,0 l/m 0,0 km/h N-NO -5,2 C -3,7 C 0,0 km/h
16.01.2016 23:00 -2,4 C 89 % 1022,1 hPa 0,0 l/m 0,0 km/h N-NO -4,0 C -2,4 C 0,0 km/h
17.01.2016 00:00 -1,3 C 89 % 1022,2 hPa 0,0 l/m 0,0 km/h N-NO -2,9 C -1,3 C 0,0 km/h
17.01.2016 01:00 -1,9 C 89 % 1022,1 hPa 0,0 l/m 0,0 km/h N-NO -3,5 C -1,9 C 0,0 km/h
17.01.2016 02:00 -0,8 C 88 % 1022,1 hPa 0,0 l/m 0,0 km/h N-NO -2,5 C -0,8 C 0,0 km/h
17.01.2016 03:00 -0,6 C 88 % 1021,8 hPa 0,0 l/m 0,0 km/h N-NO -2,3 C -0,6 C 0,0 km/h
17.01.2016 04:00 -0,7 C 88 % 1021,0 hPa 0,0 l/m 0,0 km/h N-NO -2,4 C -0,7 C 0,0 km/h
17.01.2016 05:00 -0,6 C 87 % 1020,4 hPa 0,0 l/m 0,0 km/h N-NO -2,5 C -0,6 C 0,0 km/h
17.01.2016 06:00 -0,5 C 87 % 1020,3 hPa 0,0 l/m 0,0 km/h N-NO -2,4 C -0,5 C 0,0 km/h
17.01.2016 07:00 -0,6 C 87 % 1020,2 hPa 0,0 l/m 0,0 km/h N-NO -2,5 C -0,6 C 0,0 km/h
17.01.2016 08:00 -0,6 C 86 % 1020,5 hPa 0,0 l/m 0,0 km/h N-NO -2,6 C -0,6 C 0,0 km/h
17.01.2016 09:00 -0,2 C 86 % 1020,9 hPa 0,0 l/m 0,0 km/h N-NO -2,3 C -0,2 C 0,0 km/h
17.01.2016 10:00 0,2 C 86 % 1021,2 hPa 0,0 l/m 0,0 km/h N-NO -1,9 C 0,2 C 0,0 km/h
17.01.2016 11:00 1,6 C 87 % 1021,4 hPa 0,0 l/m 0,0 km/h N -0,3 C 1,6 C 0,0 km/h
17.01.2016 12:00 6,4 C 83 % 1021,2 hPa 0,0 l/m 0,0 km/h N-NO 3,7 C 6,4 C 0,0 km/h
17.01.2016 13:00 2,1 C 77 % 1021,1 hPa 1,2 l/m 0,0 km/h N-NO -1,5 C 2,1 C 0,0 km/h
17.01.2016 14:00 3,3 C 72 % 1021,3 hPa 0,4 l/m 0,0 km/h N-NO -1,3 C 3,3 C 0,0 km/h
17.01.2016 15:00 2,8 C 75 % 1021,7 hPa 0,4 l/m 6,5 km/h SO -1,2 C 2,7 C 3,6 km/h
17.01.2016 16:00 -1,4 C 80 % 1022,2 hPa 0,0 l/m 0,0 km/h SO -4,4 C -1,4 C 0,0 km/h
17.01.2016 17:00 -1,8 C 85 % 1022,7 hPa 0,4 l/m 0,0 km/h SO -4,0 C -1,8 C 0,0 km/h
17.01.2016 18:00 -3,3 C 86 % 1023,2 hPa 0,0 l/m 0,0 km/h SO -5,3 C -3,3 C 0,0 km/h
17.01.2016 19:00 -5,3 C 86 % 1023,6 hPa 0,0 l/m 0,0 km/h O-SO -7,3 C -5,3 C 0,0 km/h
17.01.2016 20:00 -6,4 C 87 % 1023,2 hPa 0,0 l/m 0,0 km/h SO -8,2 C -6,4 C 0,0 km/h
17.01.2016 21:00 -7,8 C 87 % 1023,0 hPa 0,0 l/m 0,0 km/h O-SO -9,6 C -7,8 C 0,0 km/h
17.01.2016 22:00 -8,6 C 88 % 1022,5 hPa 0,0 l/m 0,0 km/h O-SO -10,2 C -8,6 C 0,0 km/h
17.01.2016 23:00 -8,5 C 88 % 1022,2 hPa 0,0 l/m 0,0 km/h O-SO -10,1 C -8,5 C 0,0 km/h
Min-Datum _ 17.01.16 14.01.16 11.01.16 - 11.01.16 - 17.01.16 15.01.16 11.01.16
_ Min-Zeit 22:42 14:42 14:42 - 02:42 - 22:42 06:42 02:42
Minimum _ -8,6 C 57 % 989,3 hPa - 0,0 km/h - -10,2 C -13,9 C 0,0 km/h
Max-Datum _ 14.01.16 11.01.16 17.01.16 11.01.16 15.01.16 - 11.01.16 14.01.16 15.01.16
_ Max-Zeit 12:42 07:42 19:42 09:42 06:42 - 12:42 12:42 06:42
Maximum _ 11,1 C 89 % 1023,6 hPa 2,5 l/m 50,5 km/h
W-SW
- 7,0 C 11,1 C 28,1 km/h
W-SW
Durchschnitt _ 2,9 C 84 % 1009,9 hPa #24,9 l/m 10,3 km/h W-SW 0,4 C -0,9 C 5,7 km/h
www.sexauwetter.de